sensor_id;sensor_type;location;lat;lon;timestamp;P1;durP1;ratioP1;P2;durP2;ratioP2
26106;SDS011;13866;50.748;12.630;2023-03-11T00:00:39;2.60;;;2.60;;
26106;SDS011;13866;50.748;12.630;2023-03-11T00:03:08;2.40;;;2.40;;
26106;SDS011;13866;50.748;12.630;2023-03-11T00:05:37;3.03;;;3.03;;
26106;SDS011;13866;50.748;12.630;2023-03-11T00:08:05;3.10;;;3.10;;
26106;SDS011;13866;50.748;12.630;2023-03-11T00:10:39;2.70;;;2.70;;
26106;SDS011;13866;50.748;12.630;2023-03-11T00:13:06;3.30;;;3.30;;
26106;SDS011;13866;50.748;12.630;2023-03-11T00:15:34;2.80;;;2.80;;
26106;SDS011;13866;50.748;12.630;2023-03-11T00:18:00;3.77;;;3.77;;
26106;SDS011;13866;50.748;12.630;2023-03-11T00:20:30;3.40;;;3.40;;
26106;SDS011;13866;50.748;12.630;2023-03-11T00:23:00;3.10;;;3.10;;
26106;SDS011;13866;50.748;12.630;2023-03-11T00:25:27;3.30;;;3.20;;
26106;SDS011;13866;50.748;12.630;2023-03-11T00:27:54;2.93;;;2.93;;
26106;SDS011;13866;50.748;12.630;2023-03-11T00:30:20;3.50;;;3.50;;
26106;SDS011;13866;50.748;12.630;2023-03-11T00:32:47;3.53;;;3.53;;
26106;SDS011;13866;50.748;12.630;2023-03-11T00:35:16;5.13;;;4.10;;
26106;SDS011;13866;50.748;12.630;2023-03-11T00:37:44;4.60;;;4.50;;
26106;SDS011;13866;50.748;12.630;2023-03-11T00:40:12;4.10;;;4.00;;
26106;SDS011;13866;50.748;12.630;2023-03-11T00:42:38;4.77;;;4.67;;
26106;SDS011;13866;50.748;12.630;2023-03-11T00:45:04;4.57;;;4.40;;
26106;SDS011;13866;50.748;12.630;2023-03-11T00:47:30;5.43;;;5.33;;
26106;SDS011;13866;50.748;12.630;2023-03-11T00:49:56;5.77;;;5.67;;
26106;SDS011;13866;50.748;12.630;2023-03-11T00:52:21;4.50;;;4.50;;
26106;SDS011;13866;50.748;12.630;2023-03-11T00:54:46;5.80;;;5.70;;
26106;SDS011;13866;50.748;12.630;2023-03-11T00:57:12;6.70;;;6.40;;
26106;SDS011;13866;50.748;12.630;2023-03-11T00:59:37;5.73;;;5.63;;
26106;SDS011;13866;50.748;12.630;2023-03-11T01:02:03;6.13;;;6.03;;
26106;SDS011;13866;50.748;12.630;2023-03-11T01:04:28;6.37;;;6.27;;
26106;SDS011;13866;50.748;12.630;2023-03-11T01:06:54;5.33;;;5.23;;
26106;SDS011;13866;50.748;12.630;2023-03-11T01:09:19;6.70;;;6.60;;
26106;SDS011;13866;50.748;12.630;2023-03-11T01:11:45;7.13;;;6.93;;
26106;SDS011;13866;50.748;12.630;2023-03-11T01:14:10;6.10;;;5.93;;
26106;SDS011;13866;50.748;12.630;2023-03-11T01:16:36;6.40;;;6.30;;
26106;SDS011;13866;50.748;12.630;2023-03-11T01:19:02;5.73;;;5.60;;
26106;SDS011;13866;50.748;12.630;2023-03-11T01:21:27;6.80;;;6.60;;
26106;SDS011;13866;50.748;12.630;2023-03-11T01:23:53;5.77;;;5.57;;
26106;SDS011;13866;50.748;12.630;2023-03-11T01:26:18;6.27;;;6.17;;
26106;SDS011;13866;50.748;12.630;2023-03-11T01:28:44;5.60;;;5.50;;
26106;SDS011;13866;50.748;12.630;2023-03-11T01:31:09;5.10;;;4.90;;
26106;SDS011;13866;50.748;12.630;2023-03-11T01:33:35;5.53;;;5.33;;
26106;SDS011;13866;50.748;12.630;2023-03-11T01:36:00;4.70;;;4.70;;
26106;SDS011;13866;50.748;12.630;2023-03-11T01:38:26;5.27;;;5.20;;
26106;SDS011;13866;50.748;12.630;2023-03-11T01:40:52;4.83;;;4.83;;
26106;SDS011;13866;50.748;12.630;2023-03-11T01:46:23;4.35;;;4.28;;
26106;SDS011;13866;50.748;12.630;2023-03-11T01:48:59;4.50;;;4.50;;
26106;SDS011;13866;50.748;12.630;2023-03-11T01:51:27;4.68;;;4.57;;
26106;SDS011;13866;50.748;12.630;2023-03-11T01:53:55;4.70;;;4.70;;
26106;SDS011;13866;50.748;12.630;2023-03-11T01:56:22;4.80;;;4.80;;
26106;SDS011;13866;50.748;12.630;2023-03-11T01:58:49;5.57;;;5.47;;
26106;SDS011;13866;50.748;12.630;2023-03-11T02:01:18;4.60;;;4.60;;
26106;SDS011;13866;50.748;12.630;2023-03-11T02:03:44;5.28;;;5.18;;
26106;SDS011;13866;50.748;12.630;2023-03-11T02:06:11;6.93;;;5.70;;
26106;SDS011;13866;50.748;12.630;2023-03-11T02:08:41;4.57;;;4.47;;
26106;SDS011;13866;50.748;12.630;2023-03-11T02:11:08;4.28;;;4.28;;
26106;SDS011;13866;50.748;12.630;2023-03-11T02:13:37;5.78;;;5.68;;
26106;SDS011;13866;50.748;12.630;2023-03-11T02:16:05;6.45;;;6.25;;
26106;SDS011;13866;50.748;12.630;2023-03-11T02:18:31;6.33;;;6.13;;
26106;SDS011;13866;50.748;12.630;2023-03-11T02:21:00;5.83;;;5.73;;
26106;SDS011;13866;50.748;12.630;2023-03-11T02:23:48;5.78;;;5.68;;
26106;SDS011;13866;50.748;12.630;2023-03-11T02:26:22;5.03;;;4.93;;
26106;SDS011;13866;50.748;12.630;2023-03-11T02:28:56;5.45;;;5.35;;
26106;SDS011;13866;50.748;12.630;2023-03-11T02:31:23;6.32;;;6.22;;
26106;SDS011;13866;50.748;12.630;2023-03-11T02:33:49;6.28;;;6.18;;
26106;SDS011;13866;50.748;12.630;2023-03-11T02:39:05;5.55;;;5.43;;
26106;SDS011;13866;50.748;12.630;2023-03-11T02:41:32;6.68;;;6.47;;
26106;SDS011;13866;50.748;12.630;2023-03-11T02:47:23;5.93;;;5.68;;
26106;SDS011;13866;50.748;12.630;2023-03-11T02:49:49;4.80;;;4.70;;
26106;SDS011;13866;50.748;12.630;2023-03-11T02:52:15;5.60;;;5.50;;
26106;SDS011;13866;50.748;12.630;2023-03-11T02:54:41;5.95;;;5.85;;
26106;SDS011;13866;50.748;12.630;2023-03-11T02:57:07;5.63;;;5.53;;
26106;SDS011;13866;50.748;12.630;2023-03-11T02:59:32;5.93;;;5.83;;
26106;SDS011;13866;50.748;12.630;2023-03-11T03:01:58;6.07;;;5.87;;
26106;SDS011;13866;50.748;12.630;2023-03-11T03:04:23;6.20;;;5.90;;
26106;SDS011;13866;50.748;12.630;2023-03-11T03:06:49;6.50;;;6.33;;
26106;SDS011;13866;50.748;12.630;2023-03-11T03:09:14;5.97;;;5.87;;
26106;SDS011;13866;50.748;12.630;2023-03-11T03:11:40;5.80;;;5.60;;
26106;SDS011;13866;50.748;12.630;2023-03-11T03:14:05;6.67;;;6.47;;
26106;SDS011;13866;50.748;12.630;2023-03-11T03:16:30;5.00;;;4.90;;
26106;SDS011;13866;50.748;12.630;2023-03-11T03:18:56;5.87;;;5.77;;
26106;SDS011;13866;50.748;12.630;2023-03-11T03:21:21;4.80;;;4.73;;
26106;SDS011;13866;50.748;12.630;2023-03-11T03:23:47;5.40;;;5.30;;
26106;SDS011;13866;50.748;12.630;2023-03-11T03:26:13;6.30;;;5.90;;
26106;SDS011;13866;50.748;12.630;2023-03-11T03:28:38;5.80;;;5.40;;
26106;SDS011;13866;50.748;12.630;2023-03-11T03:31:05;5.37;;;5.27;;
26106;SDS011;13866;50.748;12.630;2023-03-11T03:33:32;5.50;;;5.40;;
26106;SDS011;13866;50.748;12.630;2023-03-11T03:35:58;5.60;;;5.50;;
26106;SDS011;13866;50.748;12.630;2023-03-11T03:38:23;5.03;;;5.03;;
26106;SDS011;13866;50.748;12.630;2023-03-11T03:40:49;5.20;;;5.10;;
26106;SDS011;13866;50.748;12.630;2023-03-11T03:43:14;5.30;;;5.20;;
26106;SDS011;13866;50.748;12.630;2023-03-11T03:45:40;5.83;;;5.73;;
26106;SDS011;13866;50.748;12.630;2023-03-11T03:48:06;5.97;;;5.80;;
26106;SDS011;13866;50.748;12.630;2023-03-11T03:50:31;5.60;;;5.50;;
26106;SDS011;13866;50.748;12.630;2023-03-11T03:52:57;5.47;;;5.37;;
26106;SDS011;13866;50.748;12.630;2023-03-11T03:55:23;6.67;;;6.47;;
26106;SDS011;13866;50.748;12.630;2023-03-11T03:57:48;6.00;;;5.90;;
26106;SDS011;13866;50.748;12.630;2023-03-11T04:00:14;5.17;;;5.07;;
26106;SDS011;13866;50.748;12.630;2023-03-11T04:02:40;6.40;;;6.10;;
26106;SDS011;13866;50.748;12.630;2023-03-11T04:05:06;5.70;;;5.60;;
26106;SDS011;13866;50.748;12.630;2023-03-11T04:07:33;5.47;;;5.38;;
26106;SDS011;13866;50.748;12.630;2023-03-11T04:09:59;5.03;;;4.93;;
26106;SDS011;13866;50.748;12.630;2023-03-11T04:12:25;8.73;;;5.47;;
26106;SDS011;13866;50.748;12.630;2023-03-11T04:14:50;5.87;;;5.67;;
26106;SDS011;13866;50.748;12.630;2023-03-11T04:17:16;4.63;;;4.53;;
26106;SDS011;13866;50.748;12.630;2023-03-11T04:19:41;5.20;;;5.10;;
26106;SDS011;13866;50.748;12.630;2023-03-11T04:22:07;4.70;;;4.60;;
26106;SDS011;13866;50.748;12.630;2023-03-11T04:24:33;4.57;;;4.47;;
26106;SDS011;13866;50.748;12.630;2023-03-11T04:26:58;5.27;;;5.17;;
26106;SDS011;13866;50.748;12.630;2023-03-11T04:29:24;4.80;;;4.70;;
26106;SDS011;13866;50.748;12.630;2023-03-11T04:31:49;5.10;;;5.00;;
26106;SDS011;13866;50.748;12.630;2023-03-11T04:34:15;4.60;;;4.50;;
26106;SDS011;13866;50.748;12.630;2023-03-11T04:36:40;4.50;;;4.50;;
26106;SDS011;13866;50.748;12.630;2023-03-11T04:39:06;5.00;;;4.90;;
26106;SDS011;13866;50.748;12.630;2023-03-11T04:41:31;4.53;;;4.47;;
26106;SDS011;13866;50.748;12.630;2023-03-11T04:43:57;4.60;;;4.30;;
26106;SDS011;13866;50.748;12.630;2023-03-11T04:46:24;5.00;;;4.80;;
26106;SDS011;13866;50.748;12.630;2023-03-11T04:48:49;4.93;;;4.83;;
26106;SDS011;13866;50.748;12.630;2023-03-11T04:51:15;4.63;;;4.63;;
26106;SDS011;13866;50.748;12.630;2023-03-11T04:53:40;5.17;;;5.07;;
26106;SDS011;13866;50.748;12.630;2023-03-11T04:56:06;5.40;;;5.30;;
26106;SDS011;13866;50.748;12.630;2023-03-11T04:58:31;4.87;;;4.77;;
26106;SDS011;13866;50.748;12.630;2023-03-11T05:00:57;4.47;;;4.47;;
26106;SDS011;13866;50.748;12.630;2023-03-11T05:03:22;4.83;;;4.73;;
26106;SDS011;13866;50.748;12.630;2023-03-11T05:05:48;4.80;;;4.70;;
26106;SDS011;13866;50.748;12.630;2023-03-11T05:08:13;4.90;;;4.70;;
26106;SDS011;13866;50.748;12.630;2023-03-11T05:10:39;5.57;;;5.47;;
26106;SDS011;13866;50.748;12.630;2023-03-11T05:13:05;5.05;;;4.85;;
26106;SDS011;13866;50.748;12.630;2023-03-11T05:15:31;5.03;;;4.87;;
26106;SDS011;13866;50.748;12.630;2023-03-11T05:17:56;5.40;;;5.30;;
26106;SDS011;13866;50.748;12.630;2023-03-11T05:20:22;4.90;;;4.80;;
26106;SDS011;13866;50.748;12.630;2023-03-11T05:22:47;5.20;;;4.27;;
26106;SDS011;13866;50.748;12.630;2023-03-11T05:25:13;4.83;;;4.63;;
26106;SDS011;13866;50.748;12.630;2023-03-11T05:27:39;4.90;;;4.80;;
26106;SDS011;13866;50.748;12.630;2023-03-11T05:30:05;4.65;;;4.55;;
26106;SDS011;13866;50.748;12.630;2023-03-11T05:32:31;4.70;;;4.60;;
26106;SDS011;13866;50.748;12.630;2023-03-11T05:34:57;5.57;;;5.47;;
26106;SDS011;13866;50.748;12.630;2023-03-11T05:37:22;5.33;;;5.23;;
26106;SDS011;13866;50.748;12.630;2023-03-11T05:39:48;5.17;;;5.07;;
26106;SDS011;13866;50.748;12.630;2023-03-11T05:42:13;4.53;;;4.40;;
26106;SDS011;13866;50.748;12.630;2023-03-11T05:44:39;5.87;;;5.47;;
26106;SDS011;13866;50.748;12.630;2023-03-11T05:47:05;5.30;;;5.05;;
26106;SDS011;13866;50.748;12.630;2023-03-11T05:49:30;5.63;;;5.20;;
26106;SDS011;13866;50.748;12.630;2023-03-11T05:51:56;4.13;;;4.10;;
26106;SDS011;13866;50.748;12.630;2023-03-11T05:54:21;4.67;;;4.67;;
26106;SDS011;13866;50.748;12.630;2023-03-11T05:56:47;5.07;;;4.93;;
26106;SDS011;13866;50.748;12.630;2023-03-11T05:59:13;4.00;;;3.90;;
26106;SDS011;13866;50.748;12.630;2023-03-11T06:01:40;5.95;;;5.55;;
26106;SDS011;13866;50.748;12.630;2023-03-11T06:04:07;4.28;;;4.15;;
26106;SDS011;13866;50.748;12.630;2023-03-11T06:06:32;5.07;;;4.87;;
26106;SDS011;13866;50.748;12.630;2023-03-11T06:08:58;4.37;;;4.27;;
26106;SDS011;13866;50.748;12.630;2023-03-11T06:11:23;7.80;;;4.33;;
26106;SDS011;13866;50.748;12.630;2023-03-11T06:13:53;3.83;;;3.80;;
26106;SDS011;13866;50.748;12.630;2023-03-11T06:16:21;3.75;;;3.75;;
26106;SDS011;13866;50.748;12.630;2023-03-11T06:18:47;3.70;;;3.70;;
26106;SDS011;13866;50.748;12.630;2023-03-11T06:21:17;3.73;;;3.63;;
26106;SDS011;13866;50.748;12.630;2023-03-11T06:23:46;4.43;;;4.15;;
26106;SDS011;13866;50.748;12.630;2023-03-11T06:26:13;3.40;;;3.40;;
26106;SDS011;13866;50.748;12.630;2023-03-11T06:28:41;4.00;;;4.00;;
26106;SDS011;13866;50.748;12.630;2023-03-11T06:31:28;4.93;;;4.72;;
26106;SDS011;13866;50.748;12.630;2023-03-11T06:33:53;4.53;;;4.43;;
26106;SDS011;13866;50.748;12.630;2023-03-11T06:36:23;3.67;;;3.67;;
26106;SDS011;13866;50.748;12.630;2023-03-11T06:38:52;3.53;;;3.53;;
26106;SDS011;13866;50.748;12.630;2023-03-11T06:41:18;3.63;;;3.60;;
26106;SDS011;13866;50.748;12.630;2023-03-11T06:43:44;4.03;;;3.73;;
26106;SDS011;13866;50.748;12.630;2023-03-11T06:46:16;6.30;;;4.17;;
26106;SDS011;13866;50.748;12.630;2023-03-11T06:48:43;3.72;;;3.65;;
26106;SDS011;13866;50.748;12.630;2023-03-11T06:51:15;3.80;;;3.70;;
26106;SDS011;13866;50.748;12.630;2023-03-11T06:53:41;3.50;;;3.50;;
26106;SDS011;13866;50.748;12.630;2023-03-11T06:56:08;3.77;;;3.57;;
26106;SDS011;13866;50.748;12.630;2023-03-11T06:58:36;3.13;;;3.13;;
26106;SDS011;13866;50.748;12.630;2023-03-11T07:01:10;3.50;;;3.50;;
26106;SDS011;13866;50.748;12.630;2023-03-11T07:03:47;3.80;;;3.70;;
26106;SDS011;13866;50.748;12.630;2023-03-11T07:06:14;3.17;;;3.17;;
26106;SDS011;13866;50.748;12.630;2023-03-11T07:08:41;3.20;;;3.20;;
26106;SDS011;13866;50.748;12.630;2023-03-11T07:11:14;2.67;;;2.67;;
26106;SDS011;13866;50.748;12.630;2023-03-11T07:13:42;3.35;;;3.35;;
26106;SDS011;13866;50.748;12.630;2023-03-11T07:16:09;2.90;;;2.90;;
26106;SDS011;13866;50.748;12.630;2023-03-11T07:18:40;3.40;;;3.40;;
26106;SDS011;13866;50.748;12.630;2023-03-11T07:21:07;3.10;;;3.10;;
26106;SDS011;13866;50.748;12.630;2023-03-11T07:23:33;2.80;;;2.80;;
26106;SDS011;13866;50.748;12.630;2023-03-11T07:25:59;3.00;;;3.00;;
26106;SDS011;13866;50.748;12.630;2023-03-11T07:28:25;2.87;;;2.87;;
26106;SDS011;13866;50.748;12.630;2023-03-11T07:30:52;3.10;;;3.10;;
26106;SDS011;13866;50.748;12.630;2023-03-11T07:33:18;3.70;;;2.83;;
26106;SDS011;13866;50.748;12.630;2023-03-11T07:35:44;2.60;;;2.60;;
26106;SDS011;13866;50.748;12.630;2023-03-11T07:38:10;2.80;;;2.70;;
26106;SDS011;13866;50.748;12.630;2023-03-11T07:40:35;3.30;;;3.20;;
26106;SDS011;13866;50.748;12.630;2023-03-11T07:43:01;3.43;;;3.33;;
26106;SDS011;13866;50.748;12.630;2023-03-11T07:45:26;3.20;;;3.10;;
26106;SDS011;13866;50.748;12.630;2023-03-11T07:47:52;2.83;;;2.63;;
26106;SDS011;13866;50.748;12.630;2023-03-11T07:50:18;2.73;;;2.73;;
26106;SDS011;13866;50.748;12.630;2023-03-11T07:52:46;2.80;;;2.80;;
26106;SDS011;13866;50.748;12.630;2023-03-11T07:55:11;3.10;;;3.10;;
26106;SDS011;13866;50.748;12.630;2023-03-11T07:57:37;3.80;;;3.50;;
26106;SDS011;13866;50.748;12.630;2023-03-11T08:00:03;3.20;;;3.10;;
26106;SDS011;13866;50.748;12.630;2023-03-11T08:02:29;3.30;;;3.20;;
26106;SDS011;13866;50.748;12.630;2023-03-11T08:04:54;3.53;;;3.40;;
26106;SDS011;13866;50.748;12.630;2023-03-11T08:07:21;3.70;;;3.70;;
26106;SDS011;13866;50.748;12.630;2023-03-11T08:09:46;2.90;;;2.90;;
26106;SDS011;13866;50.748;12.630;2023-03-11T08:12:12;4.13;;;3.90;;
26106;SDS011;13866;50.748;12.630;2023-03-11T08:14:37;3.43;;;3.07;;
26106;SDS011;13866;50.748;12.630;2023-03-11T08:17:03;3.83;;;3.60;;
26106;SDS011;13866;50.748;12.630;2023-03-11T08:19:29;3.63;;;3.53;;
26106;SDS011;13866;50.748;12.630;2023-03-11T08:21:55;3.47;;;3.47;;
26106;SDS011;13866;50.748;12.630;2023-03-11T08:24:20;3.47;;;3.27;;
26106;SDS011;13866;50.748;12.630;2023-03-11T08:26:46;3.93;;;3.83;;
26106;SDS011;13866;50.748;12.630;2023-03-11T08:29:11;3.90;;;3.70;;
26106;SDS011;13866;50.748;12.630;2023-03-11T08:31:37;3.37;;;2.97;;
26106;SDS011;13866;50.748;12.630;2023-03-11T08:34:04;4.10;;;3.80;;
26106;SDS011;13866;50.748;12.630;2023-03-11T08:36:31;3.70;;;3.40;;
26106;SDS011;13866;50.748;12.630;2023-03-11T08:38:57;3.90;;;3.30;;
26106;SDS011;13866;50.748;12.630;2023-03-11T08:41:23;3.30;;;2.90;;
26106;SDS011;13866;50.748;12.630;2023-03-11T08:43:49;3.27;;;3.27;;
26106;SDS011;13866;50.748;12.630;2023-03-11T08:46:29;3.97;;;3.77;;
26106;SDS011;13866;50.748;12.630;2023-03-11T08:48:56;4.35;;;4.22;;
26106;SDS011;13866;50.748;12.630;2023-03-11T08:51:23;2.88;;;2.65;;
26106;SDS011;13866;50.748;12.630;2023-03-11T08:53:49;4.20;;;4.00;;
26106;SDS011;13866;50.748;12.630;2023-03-11T08:56:16;3.15;;;3.15;;
26106;SDS011;13866;50.748;12.630;2023-03-11T08:58:42;3.55;;;3.45;;
26106;SDS011;13866;50.748;12.630;2023-03-11T09:01:09;3.17;;;3.17;;
26106;SDS011;13866;50.748;12.630;2023-03-11T09:03:36;5.78;;;3.33;;
26106;SDS011;13866;50.748;12.630;2023-03-11T09:06:03;3.37;;;3.10;;
26106;SDS011;13866;50.748;12.630;2023-03-11T09:08:30;6.97;;;3.20;;
26106;SDS011;13866;50.748;12.630;2023-03-11T09:10:55;3.10;;;3.00;;
26106;SDS011;13866;50.748;12.630;2023-03-11T09:13:21;3.73;;;3.63;;
26106;SDS011;13866;50.748;12.630;2023-03-11T09:15:47;4.83;;;3.80;;
26106;SDS011;13866;50.748;12.630;2023-03-11T09:18:14;3.22;;;3.13;;
26106;SDS011;13866;50.748;12.630;2023-03-11T09:20:41;4.43;;;2.67;;
26106;SDS011;13866;50.748;12.630;2023-03-11T09:23:08;3.20;;;3.20;;
26106;SDS011;13866;50.748;12.630;2023-03-11T09:25:34;3.70;;;3.60;;
26106;SDS011;13866;50.748;12.630;2023-03-11T09:28:00;3.93;;;3.27;;
26106;SDS011;13866;50.748;12.630;2023-03-11T09:30:25;4.80;;;4.37;;
26106;SDS011;13866;50.748;12.630;2023-03-11T09:32:54;5.40;;;5.00;;
26106;SDS011;13866;50.748;12.630;2023-03-11T09:35:19;4.30;;;4.20;;
26106;SDS011;13866;50.748;12.630;2023-03-11T09:37:45;25.17;;;3.83;;
26106;SDS011;13866;50.748;12.630;2023-03-11T09:40:21;3.90;;;3.60;;
26106;SDS011;13866;50.748;12.630;2023-03-11T09:43:03;2.88;;;2.80;;
26106;SDS011;13866;50.748;12.630;2023-03-11T09:45:48;3.50;;;3.20;;
26106;SDS011;13866;50.748;12.630;2023-03-11T09:48:31;6.15;;;4.05;;
26106;SDS011;13866;50.748;12.630;2023-03-11T09:51:12;3.67;;;3.55;;
26106;SDS011;13866;50.748;12.630;2023-03-11T09:53:44;3.97;;;3.80;;
26106;SDS011;13866;50.748;12.630;2023-03-11T09:56:12;3.10;;;3.00;;
26106;SDS011;13866;50.748;12.630;2023-03-11T09:58:51;4.50;;;4.40;;
26106;SDS011;13866;50.748;12.630;2023-03-11T10:01:26;9.32;;;6.53;;
26106;SDS011;13866;50.748;12.630;2023-03-11T10:04:02;5.32;;;4.88;;
26106;SDS011;13866;50.748;12.630;2023-03-11T10:06:50;4.90;;;4.80;;
26106;SDS011;13866;50.748;12.630;2023-03-11T10:09:28;3.83;;;3.80;;
26106;SDS011;13866;50.748;12.630;2023-03-11T10:12:24;4.50;;;4.40;;
26106;SDS011;13866;50.748;12.630;2023-03-11T10:14:57;4.65;;;4.55;;
26106;SDS011;13866;50.748;12.630;2023-03-11T10:17:35;4.10;;;4.00;;
26106;SDS011;13866;50.748;12.630;2023-03-11T10:20:20;3.83;;;3.63;;
26106;SDS011;13866;50.748;12.630;2023-03-11T10:25:53;6.23;;;4.13;;
26106;SDS011;13866;50.748;12.630;2023-03-11T10:28:45;3.67;;;3.35;;
26106;SDS011;13866;50.748;12.630;2023-03-11T10:31:22;3.43;;;3.20;;
26106;SDS011;13866;50.748;12.630;2023-03-11T10:33:58;2.30;;;2.10;;
26106;SDS011;13866;50.748;12.630;2023-03-11T10:36:34;3.95;;;2.90;;
26106;SDS011;13866;50.748;12.630;2023-03-11T10:39:06;2.90;;;2.50;;
26106;SDS011;13866;50.748;12.630;2023-03-11T10:41:41;3.77;;;3.60;;
26106;SDS011;13866;50.748;12.630;2023-03-11T10:44:15;3.10;;;3.10;;
26106;SDS011;13866;50.748;12.630;2023-03-11T10:46:58;2.83;;;2.58;;
26106;SDS011;13866;50.748;12.630;2023-03-11T10:49:24;3.93;;;3.63;;
26106;SDS011;13866;50.748;12.630;2023-03-11T10:51:50;2.80;;;2.70;;
26106;SDS011;13866;50.748;12.630;2023-03-11T10:54:21;2.93;;;2.63;;
26106;SDS011;13866;50.748;12.630;2023-03-11T10:56:55;3.47;;;3.27;;
26106;SDS011;13866;50.748;12.630;2023-03-11T10:59:24;11.20;;;2.90;;
26106;SDS011;13866;50.748;12.630;2023-03-11T11:02:47;3.67;;;3.47;;
26106;SDS011;13866;50.748;12.630;2023-03-11T11:04:50;2.83;;;2.73;;
26106;SDS011;13866;50.748;12.630;2023-03-11T11:07:39;3.40;;;3.30;;
26106;SDS011;13866;50.748;12.630;2023-03-11T11:15:34;3.73;;;3.43;;
26106;SDS011;13866;50.748;12.630;2023-03-11T11:18:05;2.93;;;2.93;;
26106;SDS011;13866;50.748;12.630;2023-03-11T11:20:53;15.57;;;2.93;;
26106;SDS011;13866;50.748;12.630;2023-03-11T11:23:24;3.90;;;2.80;;
26106;SDS011;13866;50.748;12.630;2023-03-11T11:26:02;2.72;;;2.60;;
26106;SDS011;13866;50.748;12.630;2023-03-11T11:28:30;3.53;;;3.30;;
26106;SDS011;13866;50.748;12.630;2023-03-11T11:31:01;4.70;;;3.50;;
26106;SDS011;13866;50.748;12.630;2023-03-11T11:33:32;3.65;;;3.65;;
26106;SDS011;13866;50.748;12.630;2023-03-11T11:36:12;4.30;;;3.70;;
26106;SDS011;13866;50.748;12.630;2023-03-11T11:38:40;6.00;;;3.83;;
26106;SDS011;13866;50.748;12.630;2023-03-11T11:41:08;4.00;;;3.80;;
26106;SDS011;13866;50.748;12.630;2023-03-11T11:43:49;4.30;;;4.10;;
26106;SDS011;13866;50.748;12.630;2023-03-11T11:46:24;4.30;;;4.20;;
26106;SDS011;13866;50.748;12.630;2023-03-11T11:52:11;6.00;;;4.80;;
26106;SDS011;13866;50.748;12.630;2023-03-11T11:54:53;4.40;;;4.17;;
26106;SDS011;13866;50.748;12.630;2023-03-11T11:57:25;5.27;;;3.90;;
26106;SDS011;13866;50.748;12.630;2023-03-11T11:59:51;4.47;;;4.17;;
26106;SDS011;13866;50.748;12.630;2023-03-11T12:05:11;4.27;;;4.00;;
26106;SDS011;13866;50.748;12.630;2023-03-11T12:16:42;4.23;;;3.93;;
26106;SDS011;13866;50.748;12.630;2023-03-11T12:19:50;4.60;;;4.30;;
26106;SDS011;13866;50.748;12.630;2023-03-11T12:22:26;4.57;;;4.27;;
26106;SDS011;13866;50.748;12.630;2023-03-11T12:28:17;4.60;;;4.50;;
26106;SDS011;13866;50.748;12.630;2023-03-11T12:31:04;4.13;;;4.03;;
26106;SDS011;13866;50.748;12.630;2023-03-11T12:33:39;4.97;;;4.53;;
26106;SDS011;13866;50.748;12.630;2023-03-11T12:36:07;4.70;;;4.50;;
26106;SDS011;13866;50.748;12.630;2023-03-11T12:38:45;6.00;;;5.80;;
26106;SDS011;13866;50.748;12.630;2023-03-11T12:46:09;5.17;;;5.07;;
26106;SDS011;13866;50.748;12.630;2023-03-11T12:48:47;6.63;;;6.23;;
26106;SDS011;13866;50.748;12.630;2023-03-11T12:51:36;6.77;;;6.40;;
26106;SDS011;13866;50.748;12.630;2023-03-11T12:56:57;4.37;;;4.27;;
26106;SDS011;13866;50.748;12.630;2023-03-11T13:08:16;5.70;;;5.40;;
26106;SDS011;13866;50.748;12.630;2023-03-11T13:10:46;5.10;;;5.00;;
26106;SDS011;13866;50.748;12.630;2023-03-11T13:13:28;6.87;;;6.57;;
26106;SDS011;13866;50.748;12.630;2023-03-11T13:15:54;5.33;;;5.03;;
26106;SDS011;13866;50.748;12.630;2023-03-11T13:18:26;8.10;;;4.67;;
26106;SDS011;13866;50.748;12.630;2023-03-11T13:20:57;4.83;;;4.47;;
26106;SDS011;13866;50.748;12.630;2023-03-11T13:23:43;3.83;;;3.80;;
26106;SDS011;13866;50.748;12.630;2023-03-11T13:28:49;4.10;;;4.00;;
26106;SDS011;13866;50.748;12.630;2023-03-11T13:31:39;4.37;;;4.30;;
26106;SDS011;13866;50.748;12.630;2023-03-11T13:34:15;4.33;;;4.23;;
26106;SDS011;13866;50.748;12.630;2023-03-11T13:42:22;3.83;;;3.73;;
26106;SDS011;13866;50.748;12.630;2023-03-11T13:44:53;4.20;;;4.10;;
26106;SDS011;13866;50.748;12.630;2023-03-11T13:47:19;4.53;;;4.23;;
26106;SDS011;13866;50.748;12.630;2023-03-11T13:49:54;7.70;;;4.20;;
26106;SDS011;13866;50.748;12.630;2023-03-11T13:52:33;4.30;;;4.27;;
26106;SDS011;13866;50.748;12.630;2023-03-11T13:55:15;4.33;;;4.23;;
26106;SDS011;13866;50.748;12.630;2023-03-11T13:57:48;4.20;;;3.90;;
26106;SDS011;13866;50.748;12.630;2023-03-11T14:00:16;4.73;;;4.57;;
26106;SDS011;13866;50.748;12.630;2023-03-11T14:02:47;4.13;;;3.87;;
26106;SDS011;13866;50.748;12.630;2023-03-11T14:05:16;4.77;;;4.40;;
26106;SDS011;13866;50.748;12.630;2023-03-11T14:08:10;6.97;;;4.40;;
26106;SDS011;13866;50.748;12.630;2023-03-11T14:11:00;4.77;;;4.47;;
26106;SDS011;13866;50.748;12.630;2023-03-11T14:13:32;3.93;;;3.80;;
26106;SDS011;13866;50.748;12.630;2023-03-11T14:18:39;4.30;;;3.93;;
26106;SDS011;13866;50.748;12.630;2023-03-11T14:21:11;4.80;;;4.50;;
26106;SDS011;13866;50.748;12.630;2023-03-11T14:23:45;8.53;;;4.33;;
26106;SDS011;13866;50.748;12.630;2023-03-11T14:26:13;5.10;;;4.77;;
26106;SDS011;13866;50.748;12.630;2023-03-11T14:28:43;4.47;;;4.27;;
26106;SDS011;13866;50.748;12.630;2023-03-11T14:31:20;4.97;;;4.47;;
26106;SDS011;13866;50.748;12.630;2023-03-11T14:36:46;4.83;;;4.53;;
26106;SDS011;13866;50.748;12.630;2023-03-11T14:39:33;8.13;;;5.10;;
26106;SDS011;13866;50.748;12.630;2023-03-11T14:42:03;4.83;;;4.43;;
26106;SDS011;13866;50.748;12.630;2023-03-11T14:44:50;5.20;;;4.70;;
26106;SDS011;13866;50.748;12.630;2023-03-11T14:47:30;4.73;;;4.63;;
26106;SDS011;13866;50.748;12.630;2023-03-11T14:50:06;5.47;;;5.23;;
26106;SDS011;13866;50.748;12.630;2023-03-11T14:52:42;5.60;;;5.40;;
26106;SDS011;13866;50.748;12.630;2023-03-11T14:55:18;6.00;;;5.70;;
26106;SDS011;13866;50.748;12.630;2023-03-11T14:57:47;4.80;;;4.60;;
26106;SDS011;13866;50.748;12.630;2023-03-11T15:00:45;6.40;;;4.20;;
26106;SDS011;13866;50.748;12.630;2023-03-11T15:03:27;4.43;;;4.33;;
26106;SDS011;13866;50.748;12.630;2023-03-11T15:08:27;3.63;;;3.63;;
26106;SDS011;13866;50.748;12.630;2023-03-11T15:11:00;5.13;;;4.67;;
26106;SDS011;13866;50.748;12.630;2023-03-11T15:13:31;4.10;;;4.10;;
26106;SDS011;13866;50.748;12.630;2023-03-11T15:15:58;4.47;;;4.27;;
26106;SDS011;13866;50.748;12.630;2023-03-11T15:18:29;4.93;;;4.60;;
26106;SDS011;13866;50.748;12.630;2023-03-11T15:23:29;4.63;;;4.43;;
26106;SDS011;13866;50.748;12.630;2023-03-11T15:25:55;4.13;;;4.03;;
26106;SDS011;13866;50.748;12.630;2023-03-11T15:28:22;4.60;;;4.50;;
26106;SDS011;13866;50.748;12.630;2023-03-11T15:33:41;4.13;;;3.80;;
26106;SDS011;13866;50.748;12.630;2023-03-11T15:39:15;4.93;;;4.57;;
26106;SDS011;13866;50.748;12.630;2023-03-11T15:41:47;5.10;;;4.70;;
26106;SDS011;13866;50.748;12.630;2023-03-11T15:46:58;4.30;;;4.10;;
26106;SDS011;13866;50.748;12.630;2023-03-11T15:49:24;4.30;;;4.30;;
26106;SDS011;13866;50.748;12.630;2023-03-11T15:51:51;4.70;;;4.60;;
26106;SDS011;13866;50.748;12.630;2023-03-11T15:54:16;7.90;;;4.60;;
26106;SDS011;13866;50.748;12.630;2023-03-11T15:56:43;4.27;;;3.97;;
26106;SDS011;13866;50.748;12.630;2023-03-11T15:59:13;4.57;;;4.23;;
26106;SDS011;13866;50.748;12.630;2023-03-11T16:01:41;6.07;;;5.77;;
26106;SDS011;13866;50.748;12.630;2023-03-11T16:04:14;4.40;;;4.30;;
26106;SDS011;13866;50.748;12.630;2023-03-11T16:06:41;3.47;;;3.47;;